createdAt,value
2023-02-19T00:00:51.716Z,65.93
2023-02-19T00:05:59.176Z,65.89
2023-02-19T00:11:08.833Z,66.13
2023-02-19T00:16:20.278Z,66.20
2023-02-19T00:21:28.940Z,66.36
2023-02-19T00:26:37.604Z,66.36
2023-02-19T00:31:46.397Z,66.33
2023-02-19T00:36:54.696Z,66.35
2023-02-19T00:42:03.142Z,66.51
2023-02-19T00:47:10.904Z,66.56
2023-02-19T00:52:19.971Z,66.64
2023-02-19T00:57:28.183Z,66.75
2023-02-19T01:02:36.634Z,66.84
2023-02-19T01:07:45.002Z,66.83
2023-02-19T01:12:53.222Z,66.91
2023-02-19T01:18:02.014Z,66.78
2023-02-19T01:23:10.040Z,66.94
2023-02-19T01:28:18.187Z,67.14
2023-02-19T01:33:25.700Z,67.22
2023-02-19T01:38:33.891Z,67.38
2023-02-19T01:44:02.227Z,67.44
2023-02-19T01:49:14.422Z,67.69
2023-02-19T01:54:27.020Z,67.72
2023-02-19T01:59:36.096Z,67.77
2023-02-19T02:04:43.664Z,67.57
2023-02-19T02:10:10.666Z,67.76
2023-02-19T02:15:19.503Z,67.75
2023-02-19T02:20:48.706Z,67.82
2023-02-19T02:26:18.048Z,67.79
2023-02-19T02:31:31.918Z,67.89
2023-02-19T02:36:44.444Z,68.10
2023-02-19T02:42:18.769Z,68.03
2023-02-19T02:47:43.382Z,68.10
2023-02-19T02:53:12.070Z,67.92
2023-02-19T02:58:22.865Z,68.15
2023-02-19T03:03:34.560Z,68.18
2023-02-19T03:08:46.319Z,68.18
2023-02-19T03:14:18.357Z,68.17
2023-02-19T03:19:29.540Z,68.28
2023-02-19T03:25:00.509Z,68.33
2023-02-19T03:30:15.020Z,68.30
2023-02-19T03:35:25.766Z,68.42
2023-02-19T03:40:40.992Z,68.52
2023-02-19T03:45:58.483Z,68.51
2023-02-19T03:51:20.685Z,68.60
2023-02-19T03:56:36.466Z,68.52
2023-02-19T04:01:49.296Z,68.69
2023-02-19T04:07:00.232Z,68.73
2023-02-19T04:12:11.277Z,68.63
2023-02-19T04:17:27.019Z,68.72
2023-02-19T04:22:35.870Z,68.90
2023-02-19T04:27:47.122Z,68.91
2023-02-19T04:32:55.386Z,68.88
2023-02-19T04:38:04.010Z,69.09
2023-02-19T04:43:11.631Z,68.94
2023-02-19T04:48:19.648Z,69.14
2023-02-19T04:53:27.721Z,69.14
2023-02-19T04:58:36.572Z,69.17
2023-02-19T05:03:44.812Z,69.14
2023-02-19T05:08:52.421Z,69.10
2023-02-19T05:14:00.463Z,69.35
2023-02-19T05:19:08.034Z,69.36
2023-02-19T05:24:15.808Z,69.30
2023-02-19T05:29:23.518Z,69.09
2023-02-19T05:34:31.966Z,69.13
2023-02-19T05:39:40.346Z,69.11
2023-02-19T05:44:49.075Z,68.97
2023-02-19T05:49:57.388Z,69.12
2023-02-19T05:55:05.819Z,69.22
2023-02-19T06:00:17.285Z,69.23
2023-02-19T06:05:26.132Z,69.22
2023-02-19T06:10:33.268Z,69.00
2023-02-19T06:15:41.766Z,69.09
2023-02-19T06:20:49.639Z,68.93
2023-02-19T06:26:06.901Z,68.93
2023-02-19T06:31:15.689Z,68.91
2023-02-19T06:36:25.272Z,68.87
2023-02-19T06:41:33.748Z,68.94
2023-02-19T06:46:41.855Z,68.86
2023-02-19T06:51:51.171Z,68.91
2023-02-19T06:56:59.727Z,68.82
2023-02-19T07:02:07.796Z,68.87
2023-02-19T07:07:16.594Z,68.68
2023-02-19T07:12:25.068Z,68.64
2023-02-19T07:17:33.481Z,68.82
2023-02-19T07:22:41.646Z,68.73
2023-02-19T07:27:48.939Z,68.54
2023-02-19T07:32:56.572Z,68.64
2023-02-19T07:38:04.543Z,68.72
2023-02-19T07:43:13.107Z,68.60
2023-02-19T07:48:21.796Z,68.60
2023-02-19T07:53:31.165Z,68.58
2023-02-19T07:58:39.563Z,68.65
2023-02-19T08:03:50.409Z,68.60
2023-02-19T08:08:59.285Z,68.63
2023-02-19T08:14:07.600Z,68.58
2023-02-19T08:19:15.808Z,68.55
2023-02-19T08:24:24.049Z,68.60
2023-02-19T08:29:33.228Z,68.64
2023-02-19T08:34:42.501Z,68.50
2023-02-19T08:39:50.952Z,68.71
2023-02-19T08:45:00.168Z,68.57
2023-02-19T08:50:10.759Z,68.29
2023-02-19T08:55:18.540Z,68.08
2023-02-19T09:00:28.457Z,68.02
2023-02-19T09:05:36.896Z,67.73
2023-02-19T09:10:45.900Z,67.47
2023-02-19T09:15:54.752Z,67.11
2023-02-19T09:21:06.770Z,66.58
2023-02-19T09:26:14.767Z,66.67
2023-02-19T09:31:23.096Z,66.18
2023-02-19T09:36:33.936Z,65.65
2023-02-19T09:41:47.028Z,64.57
2023-02-19T09:46:56.143Z,64.26
2023-02-19T09:52:08.206Z,64.24
2023-02-19T09:57:20.512Z,63.95
2023-02-19T10:02:31.404Z,63.15
2023-02-19T10:07:41.623Z,62.86
2023-02-19T10:12:53.698Z,63.06
2023-02-19T10:18:06.233Z,62.59
2023-02-19T10:23:17.974Z,61.71
2023-02-19T10:28:30.263Z,61.94
2023-02-19T10:33:53.412Z,61.83
2023-02-19T10:39:02.494Z,61.23
2023-02-19T10:44:16.803Z,60.40
2023-02-19T10:49:30.853Z,59.88
2023-02-19T10:54:39.079Z,59.00
2023-02-19T10:59:53.718Z,58.96
2023-02-19T11:05:18.269Z,58.29
2023-02-19T11:10:30.981Z,57.38
2023-02-19T11:15:40.268Z,57.50
2023-02-19T11:20:54.922Z,56.38
2023-02-19T11:26:05.537Z,56.25
2023-02-19T11:31:27.961Z,56.59
2023-02-19T11:36:38.649Z,56.22
2023-02-19T11:42:04.949Z,55.63
2023-02-19T11:47:35.192Z,54.57
2023-02-19T11:52:52.830Z,55.15
2023-02-19T11:58:17.612Z,55.48
2023-02-19T12:03:46.647Z,55.13
2023-02-19T12:09:25.583Z,54.15
2023-02-19T12:14:53.796Z,53.88
2023-02-19T12:20:21.084Z,52.97
2023-02-19T12:25:42.348Z,52.14
2023-02-19T12:31:06.522Z,51.75
2023-02-19T12:36:24.795Z,51.72
2023-02-19T12:41:43.057Z,50.95
2023-02-19T12:46:54.830Z,51.39
2023-02-19T12:52:05.216Z,51.01
2023-02-19T12:57:19.333Z,50.85
2023-02-19T13:02:33.597Z,50.53
2023-02-19T13:07:46.909Z,50.96
2023-02-19T13:12:59.159Z,51.13
2023-02-19T13:18:14.723Z,51.05
2023-02-19T13:23:44.049Z,51.58
2023-02-19T13:29:06.936Z,51.37
2023-02-19T13:34:30.387Z,51.45
2023-02-19T13:39:38.072Z,50.64
2023-02-19T13:44:57.733Z,50.79
2023-02-19T13:50:19.848Z,50.06
2023-02-19T13:55:59.038Z,49.30
2023-02-19T14:01:08.969Z,49.08
2023-02-19T14:06:17.038Z,49.47
2023-02-19T14:12:01.174Z,49.31
2023-02-19T14:17:29.981Z,47.83
2023-02-19T14:23:25.720Z,47.58
2023-02-19T14:28:37.515Z,46.89
2023-02-19T14:33:49.813Z,47.67
2023-02-19T14:38:58.793Z,47.58
2023-02-19T14:44:08.722Z,46.99
2023-02-19T14:49:22.011Z,47.32
2023-02-19T14:54:42.028Z,46.84
2023-02-19T15:00:00.367Z,46.97
2023-02-19T15:05:19.867Z,46.25
2023-02-19T15:10:29.706Z,46.09
2023-02-19T15:15:41.979Z,46.49
2023-02-19T15:20:51.643Z,46.42
2023-02-19T15:26:01.029Z,45.91
2023-02-19T15:31:18.924Z,45.84
2023-02-19T15:36:33.674Z,45.10
2023-02-19T15:41:43.268Z,45.05
2023-02-19T15:46:52.474Z,45.00
2023-02-19T15:52:06.178Z,44.99
2023-02-19T15:57:21.785Z,45.20
2023-02-19T16:02:30.244Z,45.23
2023-02-19T16:07:38.582Z,45.49
2023-02-19T16:12:56.545Z,45.84
2023-02-19T16:18:05.452Z,45.86
2023-02-19T16:23:22.503Z,46.07
2023-02-19T16:28:36.853Z,46.37
2023-02-19T16:33:48.514Z,46.56
2023-02-19T16:39:25.854Z,47.29
2023-02-19T16:44:38.038Z,47.62
2023-02-19T16:49:44.857Z,48.24
2023-02-19T16:54:53.591Z,48.48
2023-02-19T17:00:02.768Z,48.88
2023-02-19T17:05:10.823Z,49.10
2023-02-19T17:10:23.325Z,49.28
2023-02-19T17:15:32.473Z,49.44
2023-02-19T17:20:42.715Z,49.61
2023-02-19T17:25:50.950Z,49.70
2023-02-19T17:30:59.291Z,49.87
2023-02-19T17:36:08.304Z,50.12
2023-02-19T17:41:17.649Z,50.63
2023-02-19T17:46:28.617Z,51.01
2023-02-19T17:51:37.025Z,51.63
2023-02-19T17:56:47.637Z,52.04
2023-02-19T18:01:56.276Z,52.18
2023-02-19T18:07:04.204Z,52.51
2023-02-19T18:12:12.927Z,52.67
2023-02-19T18:17:21.401Z,52.97
2023-02-19T18:22:28.908Z,53.43
2023-02-19T18:27:37.696Z,53.48
2023-02-19T18:32:48.063Z,53.57
2023-02-19T18:37:56.959Z,53.70
2023-02-19T18:43:06.692Z,53.77
2023-02-19T18:48:16.183Z,53.75
2023-02-19T18:53:25.455Z,53.74
2023-02-19T18:58:33.155Z,53.88
2023-02-19T19:03:42.214Z,54.05
2023-02-19T19:08:50.533Z,54.04
2023-02-19T19:13:58.139Z,54.05
2023-02-19T19:19:07.227Z,54.30
2023-02-19T19:24:16.482Z,54.54
2023-02-19T19:29:26.250Z,54.58
2023-02-19T19:34:35.115Z,54.73
2023-02-19T19:39:44.420Z,54.78
2023-02-19T19:44:53.773Z,55.15
2023-02-19T19:50:02.404Z,55.30
2023-02-19T19:55:10.728Z,55.44
2023-02-19T20:00:20.891Z,55.61
2023-02-19T20:05:29.320Z,55.85
2023-02-19T20:10:36.917Z,56.10
2023-02-19T20:15:45.248Z,56.11
2023-02-19T20:20:53.062Z,56.33
2023-02-19T20:26:01.476Z,56.56
2023-02-19T20:31:10.214Z,56.80
2023-02-19T20:36:17.977Z,56.93
2023-02-19T20:41:25.294Z,57.08
2023-02-19T20:46:33.978Z,57.41
2023-02-19T20:51:49.162Z,57.43
2023-02-19T20:56:58.629Z,57.71
2023-02-19T21:02:08.620Z,57.71
2023-02-19T21:07:16.457Z,57.83
2023-02-19T21:12:26.514Z,57.80
2023-02-19T21:17:34.965Z,58.11
2023-02-19T21:22:43.926Z,58.19
2023-02-19T21:27:52.510Z,58.39
2023-02-19T21:32:59.920Z,58.69
2023-02-19T21:38:09.065Z,59.17
2023-02-19T21:43:18.039Z,59.13
2023-02-19T21:48:26.527Z,59.17
2023-02-19T21:53:35.102Z,59.24
2023-02-19T21:58:42.637Z,59.33
2023-02-19T22:03:51.385Z,59.19
2023-02-19T22:08:59.057Z,59.51
2023-02-19T22:14:07.923Z,59.83
2023-02-19T22:19:16.737Z,59.96
2023-02-19T22:24:27.129Z,60.01
2023-02-19T22:29:35.334Z,60.41
2023-02-19T22:34:44.592Z,60.90
2023-02-19T22:39:52.000Z,60.99
2023-02-19T22:45:00.321Z,61.50
2023-02-19T22:50:08.837Z,61.70
2023-02-19T22:55:16.468Z,62.51
2023-02-19T23:00:25.757Z,62.98
2023-02-19T23:05:36.064Z,63.54
2023-02-19T23:10:44.856Z,63.88
2023-02-19T23:15:52.443Z,64.19
2023-02-19T23:21:01.057Z,64.81
2023-02-19T23:26:10.029Z,65.22
2023-02-19T23:31:18.808Z,65.81
2023-02-19T23:36:26.442Z,66.26
2023-02-19T23:41:33.885Z,66.55
2023-02-19T23:46:41.873Z,66.69
2023-02-19T23:51:50.507Z,67.17
2023-02-19T23:56:58.782Z,67.38
